createdAt,value
2018-04-28T00:00:47.411Z,13.20
2018-04-28T00:02:50.739Z,13.20
2018-04-28T00:04:54.858Z,13.10
2018-04-28T00:06:58.969Z,13.10
2018-04-28T00:09:02.340Z,13.10
2018-04-28T00:11:05.676Z,13.00
2018-04-28T00:13:09.830Z,13.00
2018-04-28T00:15:13.185Z,13.00
2018-04-28T00:17:18.448Z,13.00
2018-04-28T00:19:25.681Z,13.00
2018-04-28T00:21:39.390Z,12.90
2018-04-28T00:23:43.552Z,12.90
2018-04-28T00:25:48.764Z,12.90
2018-04-28T00:27:52.875Z,12.90
2018-04-28T00:30:11.124Z,12.80
2018-04-28T00:32:14.468Z,12.70
2018-04-28T00:34:17.833Z,12.70
2018-04-28T00:36:21.169Z,12.60
2018-04-28T00:38:25.273Z,12.70
2018-04-28T00:40:32.367Z,12.60
2018-04-28T00:42:50.593Z,12.70
2018-04-28T00:44:54.705Z,12.70
2018-04-28T00:49:49.626Z,12.60
2018-04-28T00:51:53.768Z,12.60
2018-04-28T00:54:03.524Z,12.60
2018-04-28T00:56:06.868Z,12.60
2018-04-28T00:58:11.800Z,12.70
2018-04-28T01:00:21.729Z,12.70
2018-04-28T01:02:26.656Z,12.70
2018-04-28T01:04:44.967Z,12.70
2018-04-28T01:06:50.963Z,12.60
2018-04-28T01:08:58.053Z,12.50
2018-04-28T01:11:03.188Z,12.40
2018-04-28T01:13:07.434Z,12.40
2018-04-28T01:15:11.608Z,12.40
2018-04-28T01:17:23.517Z,12.20
2018-04-28T01:19:49.584Z,12.10
2018-04-28T01:21:52.964Z,12.00
2018-04-28T01:23:57.193Z,12.00
2018-04-28T01:26:12.345Z,12.00
2018-04-28T01:28:22.524Z,12.00
2018-04-28T01:30:49.328Z,11.90
2018-04-28T01:33:02.347Z,11.90
2018-04-28T01:35:05.740Z,12.00
2018-04-28T01:37:30.555Z,12.00
2018-04-28T01:39:38.250Z,12.00
2018-04-28T01:41:57.257Z,11.90
2018-04-28T01:44:01.937Z,11.80
2018-04-28T01:46:07.831Z,11.80
2018-04-28T01:48:29.691Z,11.80
2018-04-28T01:50:40.972Z,11.70
2018-04-28T01:52:44.373Z,11.80
2018-04-28T01:55:03.563Z,11.80
2018-04-28T01:57:16.207Z,11.80
2018-04-28T01:59:24.419Z,11.70
2018-04-28T02:01:48.604Z,11.80
2018-04-28T02:03:58.695Z,11.80
2018-04-28T02:06:08.969Z,11.80
2018-04-28T02:08:18.150Z,11.80
2018-04-28T02:10:25.914Z,11.80
2018-04-28T02:12:45.090Z,11.80
2018-04-28T02:15:07.498Z,11.70
2018-04-28T02:17:11.713Z,11.70
2018-04-28T02:19:31.846Z,11.70
2018-04-28T02:22:02.044Z,11.60
2018-04-28T02:24:31.861Z,11.60
2018-04-28T02:26:39.022Z,11.60
2018-04-28T02:28:45.268Z,11.60
2018-04-28T02:31:04.342Z,11.50
2018-04-28T02:33:07.709Z,11.50
2018-04-28T02:35:18.640Z,11.50
2018-04-28T02:37:34.848Z,11.50
2018-04-28T02:39:39.000Z,11.50
2018-04-28T02:41:42.342Z,11.50
2018-04-28T02:44:04.207Z,11.60
2018-04-28T02:46:09.111Z,11.50
2018-04-28T02:48:15.327Z,11.50
2018-04-28T02:50:21.581Z,11.50
2018-04-28T02:52:54.424Z,11.50
2018-04-28T02:55:00.284Z,11.40
2018-04-28T02:57:10.271Z,11.50
2018-04-28T02:59:21.138Z,11.50
2018-04-28T03:01:34.069Z,11.40
2018-04-28T03:03:37.412Z,11.40
2018-04-28T03:05:41.526Z,11.50
2018-04-28T03:07:50.328Z,11.50
2018-04-28T03:09:55.230Z,11.50
2018-04-28T03:12:00.203Z,11.50
2018-04-28T03:14:04.115Z,11.50
2018-04-28T03:16:22.144Z,11.50
2018-04-28T03:18:27.106Z,11.50
2018-04-28T03:20:35.982Z,11.40
2018-04-28T03:22:39.080Z,11.30
2018-04-28T03:24:48.018Z,11.30
2018-04-28T03:27:10.456Z,11.30
2018-04-28T03:29:14.324Z,11.30
2018-04-28T03:31:21.827Z,11.30
2018-04-28T03:33:44.537Z,11.30
2018-04-28T03:35:49.360Z,11.30
2018-04-28T03:37:53.277Z,11.30
2018-04-28T03:39:59.319Z,11.30
2018-04-28T03:42:03.197Z,11.30
2018-04-28T03:44:31.994Z,11.20
2018-04-28T03:46:37.651Z,11.00
2018-04-28T03:48:58.189Z,11.00
2018-04-28T03:51:23.882Z,11.00
2018-04-28T03:53:31.571Z,10.90
2018-04-28T03:55:36.206Z,11.00
2018-04-28T03:57:51.298Z,10.90
2018-04-28T04:00:06.251Z,10.90
2018-04-28T04:02:21.277Z,10.90
2018-04-28T04:04:35.267Z,10.90
2018-04-28T04:07:00.058Z,10.90
2018-04-28T04:09:16.016Z,10.90
2018-04-28T04:11:43.730Z,10.90
2018-04-28T04:13:52.708Z,10.90
2018-04-28T04:16:02.499Z,10.80
2018-04-28T04:18:14.613Z,10.80
2018-04-28T04:20:24.232Z,10.80
2018-04-28T04:22:34.926Z,10.70
2018-04-28T04:24:41.769Z,10.70
2018-04-28T04:29:19.854Z,10.60
2018-04-28T04:31:27.797Z,10.60
2018-04-28T04:33:34.558Z,10.60
2018-04-28T04:35:55.269Z,10.60
2018-04-28T04:38:05.045Z,10.70
2018-04-28T04:40:19.933Z,10.60
2018-04-28T04:42:29.041Z,10.60
2018-04-28T04:44:36.009Z,10.60
2018-04-28T04:47:12.496Z,10.50
2018-04-28T04:49:21.373Z,10.50
2018-04-28T04:51:34.960Z,10.50
2018-04-28T04:53:49.813Z,10.50
2018-04-28T04:56:13.564Z,10.40
2018-04-28T04:58:22.131Z,10.30
2018-04-28T05:00:51.674Z,10.30
2018-04-28T05:03:01.552Z,10.30
2018-04-28T05:05:26.122Z,10.30
2018-04-28T05:07:33.128Z,10.30
2018-04-28T05:12:18.426Z,10.40
2018-04-28T05:14:42.314Z,10.40
2018-04-28T05:17:06.681Z,10.40
2018-04-28T05:19:15.535Z,10.40
2018-04-28T05:21:39.386Z,10.40
2018-04-28T05:23:55.069Z,10.50
2018-04-28T05:26:20.715Z,10.50
2018-04-28T05:28:34.278Z,10.40
2018-04-28T05:30:54.074Z,10.40
2018-04-28T05:33:03.960Z,10.50
2018-04-28T05:38:01.036Z,10.70
2018-04-28T05:40:15.977Z,10.90
2018-04-28T05:42:31.041Z,10.90
2018-04-28T05:44:45.829Z,11.00
2018-04-28T05:47:01.608Z,11.10
2018-04-28T05:54:40.970Z,11.40
2018-04-28T05:59:57.682Z,11.70
2018-04-28T06:02:04.496Z,11.80
2018-04-28T06:04:19.301Z,11.90
2018-04-28T06:09:15.159Z,11.80
2018-04-28T06:11:25.793Z,11.90
2018-04-28T06:13:40.764Z,11.80
2018-04-28T06:15:50.705Z,11.80
2018-04-28T06:18:08.226Z,12.00
2018-04-28T06:20:20.833Z,12.10
2018-04-28T06:22:24.689Z,12.10
2018-04-28T06:24:27.802Z,12.00
2018-04-28T06:26:30.888Z,12.10
2018-04-28T06:28:33.977Z,12.20
2018-04-28T06:30:37.056Z,12.30
2018-04-28T06:32:41.545Z,12.30
2018-04-28T06:34:44.691Z,12.40
2018-04-28T06:36:48.531Z,12.70
2018-04-28T06:38:51.611Z,12.70
2018-04-28T06:40:54.693Z,12.80
2018-04-28T06:42:57.802Z,12.90
2018-04-28T06:45:00.889Z,12.80
2018-04-28T06:47:04.010Z,12.90
2018-04-28T06:49:07.882Z,13.00
2018-04-28T06:51:10.952Z,13.00
2018-04-28T06:53:14.068Z,13.10
2018-04-28T06:55:17.240Z,13.10
2018-04-28T06:57:20.333Z,13.00
2018-04-28T06:59:23.420Z,13.10
2018-04-28T07:01:26.506Z,13.20
2018-04-28T07:03:29.580Z,13.30
2018-04-28T07:05:32.685Z,13.50
2018-04-28T07:07:36.557Z,13.50
2018-04-28T07:09:39.641Z,13.50
2018-04-28T07:11:42.722Z,13.60
2018-04-28T07:13:45.816Z,13.70
2018-04-28T07:15:48.904Z,13.90
2018-04-28T07:17:52.189Z,13.90
2018-04-28T07:19:56.082Z,14.20
2018-04-28T07:21:59.162Z,14.20
2018-04-28T07:24:02.303Z,14.20
2018-04-28T07:26:05.402Z,14.10
2018-04-28T07:28:09.311Z,14.10
2018-04-28T07:30:13.189Z,14.40
2018-04-28T07:32:16.290Z,14.40
2018-04-28T07:34:20.128Z,14.60
2018-04-28T07:36:23.226Z,14.60
2018-04-28T07:38:26.345Z,14.60
2018-04-28T07:40:30.296Z,14.60
2018-04-28T07:42:33.377Z,14.50
2018-04-28T07:44:36.513Z,14.60
2018-04-28T07:46:39.616Z,14.60
2018-04-28T07:48:42.699Z,14.40
2018-04-28T07:50:45.855Z,14.60
2018-04-28T07:52:48.924Z,14.80
2018-04-28T07:54:52.782Z,14.90
2018-04-28T07:56:55.921Z,14.90
2018-04-28T07:58:59.010Z,15.00
2018-04-28T08:01:02.122Z,15.10
2018-04-28T08:03:05.211Z,15.20
2018-04-28T08:05:08.290Z,15.60
2018-04-28T08:07:11.377Z,16.00
2018-04-28T08:09:14.475Z,16.30
2018-04-28T08:11:17.598Z,16.40
2018-04-28T08:13:20.695Z,16.20
2018-04-28T08:15:23.833Z,16.20
2018-04-28T08:17:26.901Z,16.30
2018-04-28T08:19:29.985Z,16.30
2018-04-28T08:21:33.055Z,16.10
2018-04-28T08:23:36.140Z,16.10
2018-04-28T08:25:39.230Z,16.20
2018-04-28T08:27:42.324Z,16.40
2018-04-28T08:29:45.435Z,16.40
2018-04-28T08:31:48.519Z,16.30
2018-04-28T08:33:51.582Z,16.10
2018-04-28T08:35:54.689Z,16.30
2018-04-28T08:37:57.773Z,16.50
2018-04-28T08:40:00.848Z,16.70
2018-04-28T08:42:03.923Z,17.00
2018-04-28T08:44:07.017Z,17.20
2018-04-28T08:46:10.120Z,17.10
2018-04-28T08:48:13.978Z,16.90
2018-04-28T08:50:17.061Z,16.80
2018-04-28T08:52:20.149Z,16.60
2018-04-28T08:54:23.248Z,16.20
2018-04-28T08:56:26.388Z,16.10
2018-04-28T08:58:29.491Z,16.00
2018-04-28T09:00:32.557Z,16.00
2018-04-28T09:02:35.632Z,16.30
2018-04-28T09:04:38.748Z,16.60
2018-04-28T09:06:55.595Z,16.70
2018-04-28T09:08:58.698Z,16.80
2018-04-28T09:11:02.030Z,16.80
2018-04-28T09:13:05.383Z,16.90
2018-04-28T09:15:08.695Z,17.20
2018-04-28T09:17:12.032Z,17.60
2018-04-28T09:19:15.383Z,18.00
2018-04-28T09:21:18.719Z,18.30
2018-04-28T09:23:22.791Z,17.70
2018-04-28T09:25:26.140Z,17.70
2018-04-28T09:27:29.466Z,17.40
2018-04-28T09:29:32.861Z,17.40
2018-04-28T09:31:36.211Z,17.30
2018-04-28T09:33:39.538Z,17.20
2018-04-28T09:35:42.873Z,17.20
2018-04-28T09:37:46.952Z,17.50
2018-04-28T09:39:50.307Z,17.50
2018-04-28T09:41:53.670Z,17.90
2018-04-28T09:43:57.749Z,17.60
2018-04-28T09:46:01.077Z,17.60
2018-04-28T09:48:05.160Z,17.90
2018-04-28T09:50:08.500Z,17.90
2018-04-28T09:52:11.848Z,18.30
2018-04-28T09:54:15.179Z,18.50
2018-04-28T09:56:18.503Z,18.30
2018-04-28T09:58:21.831Z,18.40
2018-04-28T10:00:29.765Z,18.60
2018-04-28T10:02:33.092Z,18.60
2018-04-28T10:04:36.451Z,18.80
2018-04-28T10:06:40.546Z,19.50
2018-04-28T10:08:43.853Z,19.40
2018-04-28T10:10:47.243Z,19.50
2018-04-28T10:12:50.801Z,19.20
2018-04-28T10:14:54.883Z,18.70
2018-04-28T10:16:58.193Z,18.70
2018-04-28T10:19:02.278Z,18.20
2018-04-28T10:21:05.593Z,18.20
2018-04-28T10:23:09.678Z,17.60
2018-04-28T10:25:13.058Z,17.60
2018-04-28T10:27:16.480Z,17.60
2018-04-28T10:29:19.940Z,17.60
2018-04-28T10:31:23.262Z,17.80
2018-04-28T10:33:27.367Z,18.30
2018-04-28T10:35:31.471Z,18.70
2018-04-28T10:37:34.810Z,18.60
2018-04-28T10:39:38.116Z,18.80
2018-04-28T10:41:41.430Z,19.00
2018-04-28T10:43:44.746Z,19.10
2018-04-28T10:45:48.056Z,19.20
2018-04-28T10:47:52.126Z,19.20
2018-04-28T10:49:55.453Z,19.20
2018-04-28T10:51:59.544Z,18.60
2018-04-28T10:54:02.851Z,18.50
2018-04-28T10:56:06.203Z,18.30
2018-04-28T10:58:09.545Z,18.30
2018-04-28T11:00:12.887Z,18.40
2018-04-28T11:02:16.221Z,18.50
2018-04-28T11:04:19.616Z,18.60
2018-04-28T11:06:23.911Z,18.40
2018-04-28T11:08:27.262Z,18.20
2018-04-28T11:10:32.233Z,18.20
2018-04-28T11:12:35.649Z,18.30
2018-04-28T11:14:38.977Z,18.40
2018-04-28T11:16:42.285Z,18.00
2018-04-28T11:18:45.610Z,17.80
2018-04-28T11:20:48.933Z,17.60
2018-04-28T11:22:52.259Z,17.10
2018-04-28T11:24:59.217Z,17.10
2018-04-28T11:27:03.006Z,17.10
2018-04-28T11:29:06.373Z,17.00
2018-04-28T11:31:09.741Z,17.00
2018-04-28T11:33:13.830Z,16.80
2018-04-28T11:35:19.512Z,16.70
2018-04-28T11:37:22.839Z,16.70
2018-04-28T11:39:27.084Z,16.60
2018-04-28T11:41:30.391Z,16.50
2018-04-28T11:43:34.610Z,16.20
2018-04-28T11:45:37.931Z,16.20
2018-04-28T11:47:41.274Z,16.30
2018-04-28T11:49:44.613Z,16.30
2018-04-28T11:51:47.951Z,16.50
2018-04-28T11:53:51.308Z,16.60
2018-04-28T11:55:54.619Z,16.70
2018-04-28T11:57:57.935Z,16.90
2018-04-28T12:00:02.020Z,17.20
2018-04-28T12:02:05.342Z,17.20
2018-04-28T12:04:09.443Z,17.70
2018-04-28T12:06:12.780Z,17.70
2018-04-28T12:08:16.160Z,17.70
2018-04-28T12:10:19.475Z,17.80
2018-04-28T12:12:22.815Z,17.90
2018-04-28T12:14:26.900Z,17.80
2018-04-28T12:16:30.226Z,17.80
2018-04-28T12:18:33.606Z,17.90
2018-04-28T12:20:37.702Z,18.20
2018-04-28T12:22:41.007Z,18.20
2018-04-28T12:24:45.106Z,19.00
2018-04-28T12:26:48.440Z,19.00
2018-04-28T12:28:51.830Z,19.40
2018-04-28T12:30:55.195Z,19.60
2018-04-28T12:32:58.536Z,19.40
2018-04-28T12:35:02.651Z,18.90
2018-04-28T12:37:05.964Z,18.80
2018-04-28T12:39:10.121Z,18.40
2018-04-28T12:41:14.576Z,18.40
2018-04-28T12:43:17.922Z,18.30
2018-04-28T12:45:21.297Z,18.30
2018-04-28T12:47:25.429Z,18.30
2018-04-28T12:49:28.767Z,18.30
2018-04-28T12:51:32.104Z,18.30
2018-04-28T12:53:35.424Z,18.30
2018-04-28T12:55:38.747Z,18.30
2018-04-28T12:57:42.081Z,18.30
2018-04-28T12:59:45.400Z,18.40
2018-04-28T13:01:48.732Z,18.40
2018-04-28T13:03:52.820Z,18.70
2018-04-28T13:05:56.179Z,18.70
2018-04-28T13:07:59.495Z,18.40
2018-04-28T13:10:02.841Z,18.10
2018-04-28T13:12:06.226Z,18.10
2018-04-28T13:14:09.626Z,18.10
2018-04-28T13:16:12.956Z,18.00
2018-04-28T13:18:17.887Z,17.80
2018-04-28T13:20:21.200Z,17.80
2018-04-28T13:22:24.531Z,17.90
2018-04-28T13:24:27.932Z,17.90
2018-04-28T13:26:31.255Z,17.80
2018-04-28T13:28:34.603Z,17.60
2018-04-28T13:30:37.956Z,17.60
2018-04-28T13:32:41.280Z,17.60
2018-04-28T13:34:44.592Z,17.60
2018-04-28T13:36:48.758Z,17.60
2018-04-28T13:38:52.879Z,17.60
2018-04-28T13:40:56.295Z,17.60
2018-04-28T13:42:59.629Z,17.50
2018-04-28T13:45:03.798Z,17.50
2018-04-28T13:47:07.129Z,17.50
2018-04-28T13:49:10.493Z,17.40
2018-04-28T13:51:13.853Z,17.40
2018-04-28T13:53:17.183Z,17.30
2018-04-28T13:55:20.546Z,17.20
2018-04-28T13:57:23.863Z,17.00
2018-04-28T13:59:27.220Z,17.00
2018-04-28T14:01:30.616Z,16.80
2018-04-28T14:03:33.939Z,16.80
2018-04-28T14:05:37.267Z,16.70
2018-04-28T14:07:40.584Z,16.70
2018-04-28T14:09:43.997Z,16.70
2018-04-28T14:11:47.240Z,16.70
2018-04-28T14:13:50.610Z,16.70
2018-04-28T14:15:54.744Z,16.70
2018-04-28T14:17:58.068Z,16.70
2018-04-28T14:20:01.401Z,16.80
2018-04-28T14:22:04.736Z,16.80
2018-04-28T14:24:08.084Z,16.80
2018-04-28T14:26:11.475Z,16.70
2018-04-28T14:28:14.847Z,16.80
2018-04-28T14:30:18.160Z,16.70
2018-04-28T14:32:21.798Z,16.50
2018-04-28T14:34:25.124Z,16.50
2018-04-28T14:36:28.431Z,16.60
2018-04-28T14:38:32.205Z,16.70
2018-04-28T14:40:35.534Z,16.80
2018-04-28T14:42:41.792Z,16.80
2018-04-28T14:44:45.164Z,16.90
2018-04-28T14:46:49.344Z,17.00
2018-04-28T14:48:52.706Z,17.10
2018-04-28T14:50:56.025Z,17.10
2018-04-28T14:53:00.102Z,17.20
2018-04-28T14:55:03.422Z,17.20
2018-04-28T14:57:07.503Z,17.30
2018-04-28T14:59:10.812Z,17.20
2018-04-28T15:01:14.963Z,17.30
2018-04-28T15:03:19.045Z,17.20
2018-04-28T15:05:22.373Z,17.20
2018-04-28T15:07:26.764Z,17.20
2018-04-28T15:09:30.137Z,17.30
2018-04-28T15:11:33.413Z,17.30
2018-04-28T15:13:37.504Z,17.50
2018-04-28T15:15:41.604Z,17.70
2018-04-28T15:17:44.912Z,17.70
2018-04-28T15:19:48.219Z,17.80
2018-04-28T15:21:52.300Z,18.00
2018-04-28T15:23:55.622Z,18.00
2018-04-28T15:25:59.704Z,18.10
2018-04-28T15:28:03.026Z,18.10
2018-04-28T15:30:06.417Z,18.00
2018-04-28T15:32:09.745Z,18.00
2018-04-28T15:34:13.047Z,18.00
2018-04-28T15:36:16.377Z,18.00
2018-04-28T15:38:20.474Z,17.80
2018-04-28T15:40:23.777Z,17.80
2018-04-28T15:42:27.860Z,17.60
2018-04-28T15:44:31.961Z,17.50
2018-04-28T15:46:35.280Z,17.60
2018-04-28T15:48:39.360Z,17.40
2018-04-28T15:50:42.676Z,17.40
2018-04-28T15:52:46.768Z,17.30
2018-04-28T15:54:50.079Z,17.30
2018-04-28T15:56:53.397Z,17.20
2018-04-28T15:58:56.712Z,17.20
2018-04-28T16:01:00.017Z,17.10
2018-04-28T16:03:03.416Z,17.00
2018-04-28T16:05:06.906Z,17.00
2018-04-28T16:07:10.279Z,17.00
2018-04-28T16:09:13.613Z,17.00
2018-04-28T16:11:16.963Z,17.00
2018-04-28T16:13:20.340Z,17.00
2018-04-28T16:15:23.711Z,17.00
2018-04-28T16:17:27.794Z,17.00
2018-04-28T16:19:31.117Z,16.90
2018-04-28T16:21:34.443Z,16.90
2018-04-28T16:23:37.788Z,17.00
2018-04-28T16:25:41.121Z,16.90
2018-04-28T16:27:44.455Z,16.90
2018-04-28T16:29:48.592Z,17.00
2018-04-28T16:31:51.959Z,17.00
2018-04-28T16:33:55.256Z,17.00
2018-04-28T16:35:59.333Z,16.90
2018-04-28T16:38:02.685Z,16.90
2018-04-28T16:40:05.999Z,16.80
2018-04-28T16:42:10.118Z,16.80
2018-04-28T16:44:13.552Z,16.80
2018-04-28T16:46:16.929Z,16.80
2018-04-28T16:48:21.000Z,16.80
2018-04-28T16:50:24.356Z,16.80
2018-04-28T16:52:27.685Z,16.80
2018-04-28T16:54:31.045Z,16.80
2018-04-28T16:56:34.436Z,16.70
2018-04-28T16:58:37.811Z,16.70
2018-04-28T17:00:41.134Z,16.70
2018-04-28T17:02:44.450Z,16.60
2018-04-28T17:04:47.804Z,16.60
2018-04-28T17:06:51.133Z,16.50
2018-04-28T17:08:54.480Z,16.50
2018-04-28T17:10:57.881Z,16.30
2018-04-28T17:13:01.217Z,16.30
2018-04-28T17:15:04.535Z,16.20
2018-04-28T17:17:08.755Z,16.00
2018-04-28T17:19:12.928Z,16.00
2018-04-28T17:21:17.136Z,15.90
2018-04-28T17:23:20.468Z,15.90
2018-04-28T17:25:23.799Z,15.90
2018-04-28T17:27:27.884Z,15.80
2018-04-28T17:29:31.277Z,15.80
2018-04-28T17:31:34.679Z,15.80
2018-04-28T17:33:38.025Z,15.70
2018-04-28T17:35:42.145Z,15.20
2018-04-28T17:37:46.249Z,15.10
2018-04-28T17:39:50.345Z,15.00
2018-04-28T17:41:53.819Z,15.00
2018-04-28T17:43:57.952Z,14.90
2018-04-28T17:46:01.301Z,14.90
2018-04-28T17:48:04.636Z,15.00
2018-04-28T17:50:08.760Z,15.00
2018-04-28T17:52:12.904Z,15.10
2018-04-28T17:54:16.242Z,15.00
2018-04-28T17:56:19.878Z,15.10
2018-04-28T17:58:24.242Z,15.10
2018-04-28T18:00:27.820Z,15.00
2018-04-28T18:02:31.335Z,15.10
2018-04-28T18:04:35.376Z,15.10
2018-04-28T18:06:39.468Z,15.10
2018-04-28T18:08:42.779Z,15.10
2018-04-28T18:10:46.872Z,15.00
2018-04-28T18:12:50.241Z,15.00
2018-04-28T18:14:53.574Z,15.00
2018-04-28T18:16:57.688Z,14.90
2018-04-28T18:19:01.803Z,14.90
2018-04-28T18:21:05.138Z,14.90
2018-04-28T18:23:08.466Z,14.90
2018-04-28T18:25:12.571Z,14.80
2018-04-28T18:27:15.930Z,14.80
2018-04-28T18:29:19.257Z,14.80
2018-04-28T18:31:22.599Z,14.80
2018-04-28T18:33:25.911Z,14.80
2018-04-28T18:35:29.238Z,14.80
2018-04-28T18:37:33.338Z,14.80
2018-04-28T18:39:37.424Z,14.70
2018-04-28T18:41:40.765Z,14.70
2018-04-28T18:43:44.083Z,14.70
2018-04-28T18:45:47.418Z,14.70
2018-04-28T18:47:51.570Z,14.60
2018-04-28T18:49:55.796Z,14.60
2018-04-28T18:51:59.110Z,14.60
2018-04-28T18:54:02.465Z,14.50
2018-04-28T18:56:05.797Z,14.50
2018-04-28T18:58:09.158Z,14.50
2018-04-28T19:00:12.485Z,14.50
2018-04-28T19:02:15.830Z,14.40
2018-04-28T19:04:19.139Z,14.40
2018-04-28T19:06:22.461Z,14.40
2018-04-28T19:08:25.824Z,14.40
2018-04-28T19:10:29.145Z,14.40
2018-04-28T19:12:33.279Z,14.30
2018-04-28T19:14:36.640Z,14.30
2018-04-28T19:16:39.964Z,14.20
2018-04-28T19:18:43.334Z,14.20
2018-04-28T19:20:47.429Z,14.00
2018-04-28T19:22:50.759Z,13.90
2018-04-28T19:24:54.081Z,14.00
2018-04-28T19:26:57.415Z,13.80
2018-04-28T19:29:01.537Z,13.30
2018-04-28T19:31:05.711Z,13.30
2018-04-28T19:33:09.045Z,13.30
2018-04-28T19:35:12.475Z,13.30
2018-04-28T19:37:17.066Z,13.40
2018-04-28T19:39:20.383Z,13.30
2018-04-28T19:41:23.705Z,13.20
2018-04-28T19:43:27.020Z,13.20
2018-04-28T19:45:31.095Z,13.10
2018-04-28T19:47:34.417Z,13.10
2018-04-28T19:49:38.531Z,12.90
2018-04-28T19:51:42.631Z,12.90
2018-04-28T19:53:46.714Z,12.80
2018-04-28T19:55:50.055Z,12.80
2018-04-28T19:57:53.366Z,12.90
2018-04-28T19:59:56.726Z,13.00
2018-04-28T20:02:00.050Z,13.10
2018-04-28T20:04:03.387Z,13.20
2018-04-28T20:06:06.709Z,13.30
2018-04-28T20:08:10.034Z,13.40
2018-04-28T20:10:13.358Z,13.40
2018-04-28T20:12:16.681Z,13.50
2018-04-28T20:14:19.998Z,13.50
2018-04-28T20:16:23.414Z,13.50
2018-04-28T20:18:26.683Z,13.50
2018-04-28T20:20:30.027Z,13.50
2018-04-28T20:22:46.095Z,13.50
2018-04-28T20:25:01.263Z,13.50
2018-04-28T20:27:04.600Z,13.50
2018-04-28T20:29:07.966Z,13.40
2018-04-28T20:31:12.052Z,13.40
2018-04-28T20:33:15.363Z,13.30
2018-04-28T20:35:19.499Z,13.20
2018-04-28T20:37:22.809Z,13.10
2018-04-28T20:39:26.134Z,13.10
2018-04-28T20:41:29.461Z,13.10
2018-04-28T20:43:32.792Z,13.10
2018-04-28T20:45:36.190Z,13.10
2018-04-28T20:47:39.536Z,13.20
2018-04-28T20:49:43.617Z,13.10
2018-04-28T20:51:46.953Z,13.10
2018-04-28T20:53:50.313Z,13.10
2018-04-28T20:55:54.432Z,13.10
2018-04-28T20:57:57.802Z,13.10
2018-04-28T21:00:01.164Z,13.10
2018-04-28T21:02:04.470Z,13.00
2018-04-28T21:04:07.795Z,13.10
2018-04-28T21:06:11.164Z,13.10
2018-04-28T21:08:14.515Z,13.10
2018-04-28T21:10:17.852Z,13.10
2018-04-28T21:12:21.165Z,13.10
2018-04-28T21:14:24.525Z,13.10
2018-04-28T21:16:27.868Z,13.10
2018-04-28T21:18:31.205Z,13.10
2018-04-28T21:20:34.563Z,13.10
2018-04-28T21:22:37.871Z,13.10
2018-04-28T21:24:42.920Z,13.10
2018-04-28T21:26:46.539Z,13.10
2018-04-28T21:28:49.917Z,13.00
2018-04-28T21:30:53.286Z,13.00
2018-04-28T21:32:56.620Z,13.00
2018-04-28T21:35:00.714Z,12.90
2018-04-28T21:37:04.802Z,12.90
2018-04-28T21:39:08.123Z,12.90
2018-04-28T21:41:12.268Z,12.80
2018-04-28T21:43:15.608Z,12.80
2018-04-28T21:45:18.952Z,12.70
2018-04-28T21:47:22.293Z,12.70
2018-04-28T21:49:26.397Z,12.60
2018-04-28T21:51:29.745Z,12.60
2018-04-28T21:53:33.082Z,12.50
2018-04-28T21:55:36.398Z,12.50
2018-04-28T21:57:40.473Z,12.60
2018-04-28T21:59:43.785Z,12.60
2018-04-28T22:01:47.898Z,12.60
2018-04-28T22:03:51.235Z,12.60
2018-04-28T22:05:54.547Z,12.50
2018-04-28T22:07:57.884Z,12.50
2018-04-28T22:10:01.212Z,12.60
2018-04-28T22:12:04.586Z,12.50
2018-04-28T22:14:07.914Z,12.50
2018-04-28T22:16:11.241Z,12.50
2018-04-28T22:18:14.597Z,12.50
2018-04-28T22:20:17.939Z,12.40
2018-04-28T22:22:21.336Z,12.40
2018-04-28T22:24:24.673Z,12.40
2018-04-28T22:26:28.020Z,12.30
2018-04-28T22:28:31.363Z,12.20
2018-04-28T22:30:35.464Z,12.10
2018-04-28T22:32:38.819Z,12.20
2018-04-28T22:34:42.132Z,12.10
2018-04-28T22:36:45.498Z,12.10
2018-04-28T22:38:48.843Z,12.10
2018-04-28T22:40:52.184Z,12.10
2018-04-28T22:42:55.622Z,12.10
2018-04-28T22:44:58.978Z,12.00
2018-04-28T22:47:02.339Z,12.00
2018-04-28T22:49:05.684Z,11.90
2018-04-28T22:51:09.850Z,11.80
2018-04-28T22:53:13.220Z,11.80
2018-04-28T22:55:16.639Z,11.80
2018-04-28T22:57:21.448Z,11.80
2018-04-28T22:59:24.822Z,11.70
2018-04-28T23:01:28.917Z,11.80
2018-04-28T23:03:32.251Z,11.70
2018-04-28T23:05:35.595Z,11.80
2018-04-28T23:07:38.936Z,11.70
2018-04-28T23:09:42.287Z,11.70
2018-04-28T23:11:46.392Z,11.60
2018-04-28T23:13:49.699Z,11.60
2018-04-28T23:15:53.802Z,11.60
2018-04-28T23:17:57.909Z,11.50
2018-04-28T23:20:01.986Z,11.50
2018-04-28T23:22:05.327Z,11.50
2018-04-28T23:24:08.669Z,11.50
2018-04-28T23:26:12.004Z,11.50
2018-04-28T23:28:16.133Z,11.50
2018-04-28T23:30:19.469Z,11.50
2018-04-28T23:32:22.802Z,11.50
2018-04-28T23:34:26.123Z,11.40
2018-04-28T23:36:29.446Z,11.40
2018-04-28T23:38:32.803Z,11.30
2018-04-28T23:40:36.138Z,11.40
2018-04-28T23:42:39.443Z,11.30
2018-04-28T23:44:43.548Z,11.20
2018-04-28T23:46:47.642Z,11.30
2018-04-28T23:48:50.955Z,11.20
2018-04-28T23:50:54.297Z,11.20
2018-04-28T23:52:57.617Z,11.20
2018-04-28T23:55:00.931Z,11.10
2018-04-28T23:57:04.252Z,11.10
2018-04-28T23:59:07.570Z,11.00
